Time;durP1;ratioP1;P1;durP2;ratioP2;P2;SDS_P1;SDS_P2;PMS_P1;PMS_P2;Temp;Humidity;BMP_temperature;BMP_pressure;BME280_temperature;BME280_humidity;BME280_pressure;Samples;Min_cycle;Max_cycle;Signal;HPM_P1;HPM_P2
2023/06/15 00:01:48;;;;;;;10.27;8.47;;;16.10;99.90;;;;;;4972848;28;20455;-65
2023/06/15 00:04:14;;;;;;;7.27;6.67;;;16.00;99.90;;;;;;4969495;28;20454;-65
2023/06/15 00:06:40;;;;;;;7.30;6.80;;;16.10;99.90;;;;;;4971226;28;20470;-65
2023/06/15 00:09:05;;;;;;;8.00;7.43;;;16.10;99.90;;;;;;4964709;28;20191;-65
2023/06/15 00:11:31;;;;;;;7.30;6.70;;;16.10;99.90;;;;;;4965774;28;20192;-67
2023/06/15 00:13:57;;;;;;;8.47;7.83;;;16.20;99.90;;;;;;4956778;29;20181;-64
2023/06/15 00:16:23;;;;;;;7.70;7.10;;;16.20;99.90;;;;;;4964794;28;20844;-65
2023/06/15 00:18:54;;;;;;;7.30;6.70;;;16.20;99.90;;;;;;4966696;28;20976;-65
2023/06/15 00:21:22;;;;;;;8.00;7.30;;;16.20;99.90;;;;;;4965455;28;20478;-67
2023/06/15 00:23:48;;;;;;;8.83;8.03;;;16.00;99.90;;;;;;4976322;28;20427;-65
2023/06/15 00:26:14;;;;;;;7.63;6.93;;;15.90;99.90;;;;;;4976026;28;20475;-65
2023/06/15 00:28:39;;;;;;;8.37;7.67;;;15.90;99.90;;;;;;4975084;28;20215;-65
2023/06/15 00:31:05;;;;;;;8.57;7.63;;;15.90;99.90;;;;;;4975372;28;20271;-66
2023/06/15 00:33:30;;;;;;;7.70;7.10;;;15.90;99.90;;;;;;4975876;28;20230;-65
2023/06/15 00:35:57;;;;;;;7.73;6.90;;;16.00;99.90;;;;;;4957749;28;20570;-65
2023/06/15 00:38:23;;;;;;;8.60;7.77;;;16.00;99.90;;;;;;4964924;28;20196;-65
2023/06/15 00:40:48;;;;;;;7.80;7.20;;;16.10;99.90;;;;;;4957857;28;20447;-66
2023/06/15 00:43:14;;;;;;;7.23;6.30;;;16.10;99.90;;;;;;4963197;28;20945;-66
2023/06/15 00:45:39;;;;;;;7.87;7.10;;;16.20;99.90;;;;;;4956494;29;20280;-65
2023/06/15 00:48:05;;;;;;;6.83;6.30;;;16.30;99.90;;;;;;4956370;29;20321;-66
2023/06/15 00:50:31;;;;;;;7.50;6.80;;;16.30;99.90;;;;;;4964543;28;20184;-66
2023/06/15 00:53:00;;;;;;;7.87;7.27;;;16.30;99.90;;;;;;4965575;28;20227;-65
2023/06/15 00:55:27;;;;;;;7.40;6.80;;;16.30;99.90;;;;;;4965102;28;20283;-65
2023/06/15 00:57:54;;;;;;;7.90;7.20;;;16.20;99.90;;;;;;4975537;28;20506;-65
2023/06/15 01:00:19;;;;;;;7.00;6.50;;;16.20;99.90;;;;;;4973429;28;20439;-67
2023/06/15 01:02:48;;;;;;;7.70;7.00;;;16.20;99.90;;;;;;4975333;28;20791;-65
2023/06/15 01:05:16;;;;;;;7.10;6.50;;;16.10;99.90;;;;;;4975368;28;20293;-66
2023/06/15 01:07:47;;;;;;;8.07;7.40;;;16.00;99.90;;;;;;4975471;28;20478;-65
2023/06/15 01:10:14;;;;;;;7.63;6.60;;;16.00;99.90;;;;;;4973214;28;20443;-66
2023/06/15 01:12:44;;;;;;;7.07;6.50;;;16.00;99.90;;;;;;4974577;28;20998;-64
2023/06/15 01:15:10;;;;;;;7.40;6.70;;;16.00;99.90;;;;;;4975254;28;20439;-65
2023/06/15 01:17:44;;;;;;;6.73;6.23;;;16.10;99.90;;;;;;4975126;28;20427;-65
2023/06/15 01:20:17;;;;;;;6.57;5.87;;;16.20;99.90;;;;;;4975058;28;20550;-66
2023/06/15 01:23:01;;;;;;;6.33;5.87;;;16.20;99.90;;;;;;4974540;28;20963;-65
2023/06/15 01:25:45;;;;;;;7.03;6.43;;;16.10;99.90;;;;;;4959854;28;20460;-66
2023/06/15 01:28:13;;;;;;;7.93;6.60;;;16.20;99.90;;;;;;4971647;28;20521;-66
2023/06/15 01:30:45;;;;;;;7.70;7.00;;;16.20;99.90;;;;;;4973191;28;20861;-66
2023/06/15 01:33:11;;;;;;;7.00;6.40;;;16.10;99.90;;;;;;4974968;28;21002;-66
2023/06/15 01:35:37;;;;;;;7.50;6.90;;;16.00;99.90;;;;;;4967049;28;20791;-65
2023/06/15 01:38:04;;;;;;;7.77;7.07;;;15.80;99.90;;;;;;4974379;28;20438;-66
2023/06/15 01:40:32;;;;;;;7.60;7.00;;;15.70;99.90;;;;;;4973320;28;20576;-65
2023/06/15 01:42:59;;;;;;;11.13;7.80;;;15.70;99.90;;;;;;4966604;28;20535;-66
2023/06/15 01:45:25;;;;;;;7.63;6.93;;;15.70;99.90;;;;;;4973151;28;20463;-65
2023/06/15 01:47:51;;;;;;;7.47;6.77;;;15.60;99.90;;;;;;4971349;28;20796;-65
2023/06/15 01:50:18;;;;;;;7.43;6.83;;;15.60;99.90;;;;;;4955057;29;20427;-65
2023/06/15 01:52:45;;;;;;;7.97;7.37;;;15.60;99.90;;;;;;4955264;29;20429;-67
2023/06/15 01:55:11;;;;;;;7.00;6.50;;;15.70;99.90;;;;;;4955103;29;20440;-66
2023/06/15 01:57:38;;;;;;;8.90;8.20;;;15.50;99.90;;;;;;4960335;28;20559;-66
2023/06/15 02:00:06;;;;;;;8.10;7.47;;;15.30;99.90;;;;;;4973889;28;20228;-66
2023/06/15 02:02:32;;;;;;;7.87;7.23;;;15.20;99.90;;;;;;4973200;28;20502;-65
2023/06/15 02:04:57;;;;;;;7.70;7.00;;;15.10;99.90;;;;;;4976532;28;21052;-66
2023/06/15 02:07:23;;;;;;;7.93;7.23;;;15.20;99.90;;;;;;4948938;28;20511;-67
2023/06/15 02:09:48;;;;;;;8.13;7.30;;;15.20;99.90;;;;;;4973043;28;20888;-65
2023/06/15 02:12:14;;;;;;;8.63;7.37;;;15.10;99.90;;;;;;4966202;28;20618;-65
2023/06/15 02:14:40;;;;;;;7.30;6.80;;;15.10;99.90;;;;;;4974217;28;20176;-66
2023/06/15 02:17:06;;;;;;;8.53;7.47;;;15.10;99.90;;;;;;4974254;28;20180;-65
2023/06/15 02:19:31;;;;;;;6.93;6.43;;;15.00;99.90;;;;;;4973151;28;20200;-66
2023/06/15 02:21:57;;;;;;;8.30;7.60;;;15.00;99.90;;;;;;4972653;28;20744;-66
2023/06/15 02:24:23;;;;;;;7.80;7.20;;;15.10;99.90;;;;;;4974169;28;20175;-67
2023/06/15 02:26:48;;;;;;;9.23;7.20;;;15.10;99.90;;;;;;4968615;28;20709;-65
2023/06/15 02:29:14;;;;;;;7.90;7.30;;;15.20;99.90;;;;;;4961215;28;20183;-65
2023/06/15 02:31:39;;;;;;;7.77;7.17;;;15.20;99.90;;;;;;4954587;29;20263;-65
2023/06/15 02:34:06;;;;;;;6.60;6.10;;;15.30;99.90;;;;;;4967178;28;20184;-65
2023/06/15 02:36:31;;;;;;;13.20;7.17;;;15.20;99.90;;;;;;4960492;28;20828;-65
2023/06/15 02:38:59;;;;;;;8.17;7.47;;;15.20;99.90;;;;;;4973530;28;20463;-66
2023/06/15 02:41:25;;;;;;;7.77;7.27;;;15.20;99.90;;;;;;4973018;28;20177;-66
2023/06/15 02:43:52;;;;;;;7.20;6.70;;;15.10;99.90;;;;;;4956270;28;20524;-66
2023/06/15 02:46:17;;;;;;;7.70;7.20;;;14.90;99.90;;;;;;4966670;28;20332;-66
2023/06/15 02:48:44;;;;;;;7.80;7.20;;;15.00;99.90;;;;;;4964645;28;20477;-66
2023/06/15 02:51:10;;;;;;;6.60;6.10;;;15.00;99.90;;;;;;4954703;29;20173;-66
2023/06/15 02:53:35;;;;;;;9.77;7.63;;;15.10;99.90;;;;;;4957445;28;20494;-66
2023/06/15 02:56:02;;;;;;;8.30;7.27;;;15.10;99.90;;;;;;4973188;28;20439;-67
2023/06/15 02:58:32;;;;;;;8.50;7.70;;;15.00;99.90;;;;;;4972997;28;20286;-67
2023/06/15 03:01:01;;;;;;;7.73;7.03;;;15.00;99.90;;;;;;4972182;28;20447;-66
2023/06/15 03:03:29;;;;;;;6.70;6.20;;;15.00;99.90;;;;;;4972627;28;20478;-65
2023/06/15 03:05:56;;;;;;;7.73;7.03;;;14.90;99.90;;;;;;4965032;28;20854;-65
2023/06/15 03:08:31;;;;;;;7.70;7.10;;;14.80;99.90;;;;;;4973135;28;20427;-66
2023/06/15 03:10:57;;;;;;;7.10;6.47;;;14.90;99.90;;;;;;4971946;28;20443;-66
2023/06/15 03:13:22;;;;;;;8.13;7.40;;;14.90;99.90;;;;;;4967845;28;20433;-66
2023/06/15 03:15:48;;;;;;;7.43;6.93;;;14.80;99.90;;;;;;4953890;29;20197;-65
2023/06/15 03:18:13;;;;;;;7.13;6.63;;;14.70;99.90;;;;;;4953436;29;20279;-67
2023/06/15 03:20:43;;;;;;;8.67;8.00;;;14.70;99.90;;;;;;4953943;29;20308;-66
2023/06/15 03:23:12;;;;;;;8.73;7.80;;;14.70;99.90;;;;;;4967391;28;20653;-65
2023/06/15 03:25:37;;;;;;;9.03;8.23;;;14.60;99.90;;;;;;4965206;28;20539;-66
2023/06/15 03:28:03;;;;;;;8.27;7.67;;;14.50;99.90;;;;;;4959845;28;21000;-65
2023/06/15 03:30:30;;;;;;;9.47;8.07;;;14.50;99.90;;;;;;4973084;28;20184;-66
2023/06/15 03:32:55;;;;;;;10.50;9.60;;;14.30;99.90;;;;;;4962970;28;20515;-66
2023/06/15 03:35:21;;;;;;;7.70;7.10;;;14.20;99.90;;;;;;4961251;28;21047;-67
2023/06/15 03:37:47;;;;;;;8.33;7.60;;;14.30;99.90;;;;;;4969779;28;20187;-66
2023/06/15 03:40:13;;;;;;;8.93;8.10;;;14.30;99.90;;;;;;4971889;28;20278;-66
2023/06/15 03:42:39;;;;;;;7.70;7.10;;;14.20;99.90;;;;;;4965227;28;20169;-66
2023/06/15 03:45:05;;;;;;;8.40;7.70;;;14.10;99.90;;;;;;4959932;28;20459;-66
2023/06/15 03:47:34;;;;;;;9.47;8.60;;;14.00;99.90;;;;;;4973224;28;20190;-65
2023/06/15 03:50:00;;;;;;;7.70;7.10;;;14.10;99.90;;;;;;4970619;28;20438;-66
2023/06/15 03:52:25;;;;;;;8.30;7.70;;;14.10;99.90;;;;;;4976781;28;20805;-66
2023/06/15 03:54:51;;;;;;;8.30;7.70;;;14.20;99.90;;;;;;4976536;28;20200;-66
2023/06/15 03:57:17;;;;;;;7.77;7.10;;;14.20;99.90;;;;;;4959380;28;20184;-66
2023/06/15 03:59:42;;;;;;;8.87;8.17;;;14.30;99.90;;;;;;4974899;28;20215;-66
2023/06/15 04:02:08;;;;;;;7.70;7.10;;;14.40;99.90;;;;;;4975908;28;20542;-66
2023/06/15 04:04:34;;;;;;;7.90;7.30;;;14.50;99.90;;;;;;4959161;28;20610;-66
2023/06/15 04:06:59;;;;;;;9.00;8.07;;;14.60;99.90;;;;;;4976684;28;20172;-67
2023/06/15 04:09:25;;;;;;;8.43;7.53;;;14.70;99.90;;;;;;4976215;28;20672;-66
2023/06/15 04:11:51;;;;;;;8.93;8.03;;;14.80;99.90;;;;;;4975749;28;20176;-65
2023/06/15 04:14:18;;;;;;;8.57;7.80;;;14.90;99.90;;;;;;4963669;28;20181;-66
2023/06/15 04:16:43;;;;;;;7.73;7.07;;;15.00;99.90;;;;;;4956820;29;20324;-66
2023/06/15 04:19:09;;;;;;;7.87;7.27;;;15.20;99.90;;;;;;4971658;28;20558;-66
2023/06/15 04:21:36;;;;;;;8.80;7.90;;;15.30;99.90;;;;;;4976299;28;20172;-66
2023/06/15 04:24:02;;;;;;;9.13;8.23;;;15.40;99.90;;;;;;4975682;28;20784;-66
2023/06/15 04:26:28;;;;;;;9.20;8.40;;;15.10;99.90;;;;;;4961686;28;20467;-66
2023/06/15 04:28:57;;;;;;;8.17;7.57;;;15.10;99.90;;;;;;4956577;29;20455;-66
2023/06/15 04:31:24;;;;;;;8.37;7.77;;;15.30;99.90;;;;;;4971785;28;20470;-66
2023/06/15 04:33:52;;;;;;;8.80;8.20;;;15.70;99.90;;;;;;4977080;28;20806;-66
2023/06/15 04:36:18;;;;;;;10.97;9.97;;;16.00;99.90;;;;;;4971802;28;20491;-65
2023/06/15 04:38:48;;;;;;;10.93;8.27;;;16.20;99.90;;;;;;4975539;28;20949;-66
2023/06/15 04:41:14;;;;;;;11.97;10.60;;;16.50;99.90;;;;;;4970128;28;20439;-66
2023/06/15 04:43:40;;;;;;;9.47;8.60;;;16.80;99.90;;;;;;4965050;28;20459;-66
2023/06/15 04:46:06;;;;;;;10.57;9.23;;;17.10;99.90;;;;;;4980106;28;20459;-67
2023/06/15 04:48:32;;;;;;;9.60;8.70;;;17.30;99.90;;;;;;4974750;28;20206;-66
2023/06/15 04:50:58;;;;;;;9.87;7.77;;;17.40;99.90;;;;;;4976704;28;20270;-67
2023/06/15 04:53:23;;;;;;;7.80;7.03;;;17.40;99.90;;;;;;4990187;28;20518;-66
2023/06/15 04:55:49;;;;;;;8.20;7.60;;;17.60;99.90;;;;;;4993859;28;20195;-65
2023/06/15 04:58:14;;;;;;;8.30;7.50;;;17.70;99.90;;;;;;4974580;28;20196;-65
2023/06/15 05:00:41;;;;;;;8.80;8.10;;;18.00;99.90;;;;;;4970892;28;20223;-65
2023/06/15 05:03:08;;;;;;;8.30;7.60;;;18.20;99.90;;;;;;4970774;28;20270;-67
2023/06/15 05:05:33;;;;;;;8.57;7.77;;;18.40;99.90;;;;;;4973816;28;20469;-66
2023/06/15 05:07:59;;;;;;;7.87;7.33;;;18.60;99.90;;;;;;4973511;28;20439;-67
2023/06/15 05:10:25;;;;;;;7.83;7.23;;;18.80;99.90;;;;;;4973837;28;20184;-67
2023/06/15 05:12:50;;;;;;;7.20;6.53;;;19.10;99.90;;;;;;4979460;28;20175;-66
2023/06/15 05:15:16;;;;;;;7.67;6.70;;;19.40;99.90;;;;;;4978516;28;20476;-66
2023/06/15 05:17:41;;;;;;;8.03;7.37;;;19.50;99.90;;;;;;4984003;28;20187;-67
2023/06/15 05:20:08;;;;;;;8.53;7.83;;;19.80;99.20;;;;;;4974834;28;20290;-65
2023/06/15 05:22:33;;;;;;;9.40;6.70;;;20.00;98.20;;;;;;4974483;28;20183;-66
2023/06/15 05:24:59;;;;;;;7.17;6.50;;;20.20;97.60;;;;;;4964644;28;20455;-67
2023/06/15 05:27:24;;;;;;;6.70;6.20;;;20.40;96.50;;;;;;4974273;28;20187;-66
2023/06/15 05:29:51;;;;;;;7.80;7.20;;;20.60;95.70;;;;;;4975467;28;20200;-66
2023/06/15 05:32:16;;;;;;;11.70;7.17;;;20.80;95.10;;;;;;4983289;28;20539;-67
2023/06/15 05:34:42;;;;;;;7.30;6.60;;;21.00;94.40;;;;;;4975203;28;20188;-67
2023/06/15 05:37:07;;;;;;;8.27;7.57;;;21.20;93.10;;;;;;4977992;28;20211;-66
2023/06/15 05:39:33;;;;;;;8.13;7.53;;;21.30;92.60;;;;;;4973420;28;20258;-67
2023/06/15 05:41:58;;;;;;;7.70;7.10;;;21.30;92.30;;;;;;4970817;28;20197;-66
2023/06/15 05:44:24;;;;;;;7.80;7.23;;;21.30;91.80;;;;;;4953948;28;20180;-66
2023/06/15 05:46:50;;;;;;;8.90;8.20;;;21.30;91.70;;;;;;4974183;28;20204;-67
2023/06/15 05:49:16;;;;;;;7.50;6.80;;;21.30;91.70;;;;;;4982486;28;20225;-67
2023/06/15 05:51:41;;;;;;;7.83;7.33;;;21.10;91.50;;;;;;4973269;28;20443;-67
2023/06/15 05:54:07;;;;;;;7.87;7.27;;;21.10;91.70;;;;;;4972793;28;20196;-65
2023/06/15 05:56:33;;;;;;;7.60;6.93;;;21.00;91.80;;;;;;4957741;28;20204;-67
2023/06/15 05:58:58;;;;;;;8.73;8.10;;;21.10;91.70;;;;;;4983921;28;20219;-68
2023/06/15 06:01:24;;;;;;;8.70;7.10;;;21.20;91.40;;;;;;4966097;28;20350;-66
2023/06/15 06:03:49;;;;;;;8.63;7.93;;;21.10;91.50;;;;;;4969880;28;20188;-65
2023/06/15 06:06:15;;;;;;;8.67;7.73;;;21.10;91.50;;;;;;4980675;28;20308;-67
2023/06/15 06:08:40;;;;;;;9.63;7.60;;;21.00;91.60;;;;;;4979561;28;20360;-64
2023/06/15 06:11:07;;;;;;;7.43;6.90;;;21.10;91.60;;;;;;4975509;28;20235;-67
2023/06/15 06:13:34;;;;;;;7.40;6.87;;;21.20;91.50;;;;;;4973220;28;20196;-67
2023/06/15 06:16:01;;;;;;;7.63;7.03;;;21.30;91.40;;;;;;4973628;28;20462;-74
2023/06/15 06:18:26;;;;;;;7.50;6.80;;;21.30;91.20;;;;;;4980334;28;20467;-74
2023/06/15 06:20:51;;;;;;;8.80;8.10;;;21.40;91.50;;;;;;4983398;28;20435;-74
2023/06/15 06:23:17;;;;;;;7.67;6.93;;;21.50;91.00;;;;;;4981780;28;20184;-74
2023/06/15 06:25:43;;;;;;;8.27;7.53;;;21.50;90.50;;;;;;4973640;28;20572;-74
2023/06/15 06:28:08;;;;;;;8.67;7.80;;;21.70;90.20;;;;;;4962251;28;20177;-74
2023/06/15 06:30:34;;;;;;;8.67;7.87;;;21.70;89.80;;;;;;4954681;29;20164;-74
2023/06/15 06:33:02;;;;;;;9.17;7.03;;;21.80;88.40;;;;;;4954747;29;20177;-74
2023/06/15 06:35:27;;;;;;;7.80;7.20;;;21.80;87.80;;;;;;4954558;29;20185;-74
2023/06/15 06:37:53;;;;;;;8.17;7.37;;;21.90;87.50;;;;;;4970173;28;20442;-74
2023/06/15 06:40:19;;;;;;;7.83;7.23;;;21.90;87.50;;;;;;4960359;28;20201;-74
2023/06/15 06:42:44;;;;;;;7.87;7.27;;;22.00;87.50;;;;;;4954529;29;20169;-74
2023/06/15 06:45:10;;;;;;;7.43;6.93;;;22.10;86.70;;;;;;4954654;29;20188;-74
2023/06/15 06:47:35;;;;;;;7.80;7.10;;;22.20;85.90;;;;;;4954726;29;20173;-74
2023/06/15 06:50:01;;;;;;;7.47;6.60;;;22.20;85.30;;;;;;4972673;28;20204;-74
2023/06/15 06:52:27;;;;;;;9.13;8.23;;;22.30;84.30;;;;;;4959511;28;20720;-74
2023/06/15 06:54:52;;;;;;;8.83;8.20;;;22.40;84.20;;;;;;4954219;29;20217;-74
2023/06/15 06:57:18;;;;;;;6.97;6.47;;;22.50;83.30;;;;;;4954276;29;20181;-74
2023/06/15 06:59:43;;;;;;;7.90;7.10;;;22.60;83.00;;;;;;4969459;28;20631;-74
2023/06/15 07:02:09;;;;;;;9.80;7.13;;;22.60;82.30;;;;;;4961704;28;20627;-74
2023/06/15 07:04:34;;;;;;;8.90;6.50;;;22.60;81.90;;;;;;4954242;29;20173;-74
2023/06/15 07:07:00;;;;;;;8.87;8.07;;;22.60;82.00;;;;;;4954311;29;20166;-74
2023/06/15 07:09:25;;;;;;;8.50;7.90;;;22.60;81.20;;;;;;4953763;29;20231;-74
2023/06/15 07:11:51;;;;;;;8.80;7.90;;;22.60;81.20;;;;;;4967721;28;20215;-74
2023/06/15 07:14:17;;;;;;;8.00;7.27;;;22.80;81.60;;;;;;4972686;28;20196;-74
2023/06/15 07:16:42;;;;;;;8.80;7.40;;;23.00;80.50;;;;;;4965046;28;20193;-74
2023/06/15 07:19:08;;;;;;;8.00;7.10;;;23.20;79.20;;;;;;4953680;29;20728;-74
2023/06/15 07:21:33;;;;;;;7.57;6.70;;;23.40;77.60;;;;;;4971888;28;20184;-74
2023/06/15 07:23:59;;;;;;;8.40;7.63;;;23.40;77.00;;;;;;4954658;28;20184;-74
2023/06/15 07:26:25;;;;;;;8.57;7.00;;;23.50;77.00;;;;;;4953699;29;20204;-74
2023/06/15 07:28:50;;;;;;;6.90;6.50;;;23.60;76.30;;;;;;4953684;29;20173;-74
2023/06/15 07:31:16;;;;;;;10.63;6.27;;;23.60;75.90;;;;;;4969205;28;20195;-74
2023/06/15 07:33:41;;;;;;;8.50;7.60;;;23.60;76.00;;;;;;4957166;28;20176;-74
2023/06/15 07:36:07;;;;;;;9.13;7.70;;;23.80;74.50;;;;;;4953738;29;20290;-74
2023/06/15 07:38:32;;;;;;;8.93;8.20;;;23.70;74.40;;;;;;4953488;29;20197;-74
2023/06/15 07:40:58;;;;;;;7.90;7.10;;;23.80;74.10;;;;;;4953768;29;20255;-74
2023/06/15 07:43:24;;;;;;;7.60;7.00;;;23.90;73.80;;;;;;4971648;28;20188;-74
2023/06/15 07:45:49;;;;;;;6.93;6.43;;;23.90;74.00;;;;;;4955866;28;20200;-74
2023/06/15 07:48:15;;;;;;;7.00;6.50;;;24.10;73.40;;;;;;4953447;29;20263;-74
2023/06/15 07:50:40;;;;;;;7.67;6.90;;;24.20;72.60;;;;;;4953726;29;20177;-74
2023/06/15 07:53:06;;;;;;;7.47;6.53;;;24.30;71.40;;;;;;4954148;28;20228;-75
2023/06/15 07:55:31;;;;;;;6.77;6.23;;;24.40;71.70;;;;;;4972026;28;20211;-74
2023/06/15 07:57:57;;;;;;;6.73;6.30;;;24.30;71.40;;;;;;4970837;28;20804;-75
2023/06/15 08:00:23;;;;;;;7.10;6.40;;;24.40;70.90;;;;;;4953259;29;20220;-75
2023/06/15 08:02:48;;;;;;;6.93;6.43;;;24.50;71.40;;;;;;4936442;29;20582;-75
2023/06/15 08:05:15;;;;;;;8.20;7.47;;;24.70;69.60;;;;;;4966916;28;20282;-74
2023/06/15 08:07:41;;;;;;;7.90;7.30;;;24.80;69.00;;;;;;4969834;28;20184;-75
2023/06/15 08:10:07;;;;;;;7.73;6.70;;;24.80;69.20;;;;;;4968903;28;20847;-74
2023/06/15 08:12:32;;;;;;;6.40;6.00;;;24.80;68.80;;;;;;4953497;29;20184;-75
2023/06/15 08:14:58;;;;;;;7.00;6.37;;;25.00;68.90;;;;;;4953576;29;20204;-74
2023/06/15 08:17:25;;;;;;;6.93;6.43;;;25.20;66.60;;;;;;4971375;28;20184;-74
2023/06/15 08:19:51;;;;;;;7.70;7.10;;;25.20;66.10;;;;;;4955086;28;20204;-74
2023/06/15 08:22:17;;;;;;;7.43;6.73;;;25.40;66.40;;;;;;4953364;29;20426;-74
2023/06/15 08:24:42;;;;;;;6.90;6.40;;;25.20;66.60;;;;;;4953127;29;20420;-74
2023/06/15 08:27:10;;;;;;;7.23;6.73;;;25.40;64.80;;;;;;4954409;28;20670;-75
2023/06/15 08:29:36;;;;;;;7.47;6.77;;;25.40;65.00;;;;;;4971713;28;20180;-75
2023/06/15 08:32:02;;;;;;;10.40;6.10;;;25.50;64.60;;;;;;4961882;28;20799;-74
2023/06/15 08:34:28;;;;;;;7.33;6.70;;;25.80;63.90;;;;;;4955865;28;20173;-75
2023/06/15 08:36:53;;;;;;;7.33;6.73;;;25.90;63.30;;;;;;4956624;29;20444;-75
2023/06/15 08:39:19;;;;;;;9.50;6.80;;;26.10;63.50;;;;;;4960883;28;20207;-75
2023/06/15 08:41:46;;;;;;;7.37;6.77;;;26.20;62.40;;;;;;4975351;28;20164;-74
2023/06/15 08:44:14;;;;;;;7.57;6.87;;;26.20;62.00;;;;;;4956663;29;20570;-74
2023/06/15 08:46:42;;;;;;;9.50;7.90;;;26.20;61.40;;;;;;4956668;29;20524;-75
2023/06/15 08:49:08;;;;;;;7.40;6.90;;;26.20;61.30;;;;;;4956316;29;20883;-74
2023/06/15 08:51:36;;;;;;;7.17;6.47;;;26.30;60.00;;;;;;4945690;28;20514;-74
2023/06/15 08:54:04;;;;;;;7.00;6.47;;;26.20;60.40;;;;;;4974350;28;20188;-74
2023/06/15 08:56:31;;;;;;;6.80;6.30;;;26.40;60.50;;;;;;4961076;28;20448;-75
2023/06/15 08:58:57;;;;;;;7.53;5.43;;;26.40;59.10;;;;;;4956130;29;20564;-74
2023/06/15 09:01:23;;;;;;;6.77;6.17;;;26.40;58.80;;;;;;4964731;28;20459;-75
2023/06/15 09:03:54;;;;;;;7.80;6.97;;;26.40;59.10;;;;;;4974773;28;20721;-74
2023/06/15 09:06:21;;;;;;;6.47;6.03;;;26.60;59.10;;;;;;4962252;28;20546;-75
2023/06/15 09:08:48;;;;;;;6.40;5.87;;;26.60;58.30;;;;;;4955961;29;20421;-74
2023/06/15 09:11:14;;;;;;;6.40;6.00;;;26.70;58.00;;;;;;4956180;29;20922;-72
2023/06/15 09:13:40;;;;;;;6.97;6.33;;;26.90;57.80;;;;;;4956162;29;20436;-72
2023/06/15 09:16:08;;;;;;;8.87;8.07;;;26.90;58.10;;;;;;4968949;28;20553;-72
2023/06/15 09:18:44;;;;;;;7.60;6.90;;;27.00;57.70;;;;;;4967866;28;20456;-72
2023/06/15 09:21:14;;;;;;;6.83;6.30;;;27.10;57.60;;;;;;4955998;29;20540;-74
2023/06/15 09:23:46;;;;;;;6.83;6.27;;;27.00;57.30;;;;;;4955931;29;20425;-74
2023/06/15 09:26:26;;;;;;;6.37;6.00;;;27.30;56.30;;;;;;4955677;29;20542;-74
2023/06/15 09:28:55;;;;;;;6.80;6.27;;;27.50;55.70;;;;;;4971559;28;20437;-74
2023/06/15 09:31:31;;;;;;;7.10;6.50;;;27.60;54.80;;;;;;4970056;28;21009;-74
2023/06/15 09:34:05;;;;;;;8.23;6.30;;;27.60;55.50;;;;;;4955752;29;20424;-74
2023/06/15 09:36:41;;;;;;;7.50;7.00;;;28.00;54.60;;;;;;4955714;29;20432;-75
2023/06/15 09:39:11;;;;;;;6.60;6.00;;;27.80;54.20;;;;;;4963748;28;20504;-74
2023/06/15 09:41:53;;;;;;;5.60;5.20;;;28.20;53.50;;;;;;4967314;28;20471;-74
2023/06/15 09:44:21;;;;;;;5.37;5.07;;;28.50;50.70;;;;;;4955289;28;20432;-74
2023/06/15 09:46:51;;;;;;;6.47;6.00;;;28.80;49.30;;;;;;4955072;29;20449;-74
2023/06/15 09:49:25;;;;;;;6.23;5.70;;;29.30;48.80;;;;;;4964087;28;20534;-74
2023/06/15 09:51:52;;;;;;;7.40;5.10;;;29.80;47.80;;;;;;4965292;28;20423;-74
2023/06/15 09:54:22;;;;;;;6.23;5.83;;;30.10;47.90;;;;;;4955640;29;20436;-74
2023/06/15 09:56:52;;;;;;;6.40;6.00;;;30.60;46.90;;;;;;4955277;29;20452;-75
2023/06/15 09:59:19;;;;;;;7.70;5.40;;;31.00;45.20;;;;;;4963085;28;20521;-75
2023/06/15 10:01:46;;;;;;;6.97;6.10;;;31.70;42.90;;;;;;4966039;28;20425;-75
2023/06/15 10:04:13;;;;;;;5.20;4.90;;;31.60;41.90;;;;;;4955257;29;20432;-75
2023/06/15 10:06:41;;;;;;;5.30;4.90;;;31.80;41.00;;;;;;4955003;29;20535;-75
2023/06/15 10:09:09;;;;;;;6.13;5.67;;;31.10;40.40;;;;;;4954871;29;20986;-74
2023/06/15 10:11:39;;;;;;;6.20;5.80;;;30.90;40.80;;;;;;4962601;28;20549;-74
2023/06/15 10:14:15;;;;;;;5.47;4.93;;;31.70;40.70;;;;;;4971139;28;20456;-74
2023/06/15 10:16:45;;;;;;;6.37;5.00;;;31.10;41.00;;;;;;4954933;29;20447;-75
2023/06/15 10:19:12;;;;;;;5.60;5.20;;;30.40;40.80;;;;;;4954539;29;20905;-74
2023/06/15 10:21:42;;;;;;;7.07;5.80;;;29.70;41.60;;;;;;4954847;29;20416;-74
2023/06/15 10:24:16;;;;;;;6.20;5.80;;;29.40;41.70;;;;;;4967382;28;20901;-74
2023/06/15 10:26:42;;;;;;;5.13;4.83;;;29.70;40.70;;;;;;4957787;28;20997;-75
2023/06/15 10:29:32;;;;;;;5.60;5.20;;;31.20;39.00;;;;;;4954520;29;20436;-75
2023/06/15 10:32:13;;;;;;;6.00;5.60;;;32.30;38.60;;;;;;4954961;29;20488;-74
2023/06/15 10:34:55;;;;;;;6.93;5.20;;;33.50;38.30;;;;;;4956919;28;20542;-74
2023/06/15 10:37:28;;;;;;;7.63;7.03;;;34.10;36.60;;;;;;4967739;28;20424;-75
2023/06/15 10:39:56;;;;;;;6.10;5.60;;;32.80;36.30;;;;;;4973535;28;20469;-75
2023/06/15 10:42:22;;;;;;;5.30;4.90;;;31.40;36.40;;;;;;4973985;28;20430;-74
2023/06/15 10:44:47;;;;;;;6.10;5.57;;;30.90;38.40;;;;;;4973848;28;20491;-74
2023/06/15 10:47:19;;;;;;;7.60;7.00;;;32.00;37.80;;;;;;4973180;28;20194;-75
2023/06/15 10:49:52;;;;;;;5.20;4.70;;;34.00;36.00;;;;;;4972386;28;20219;-75
2023/06/15 10:52:18;;;;;;;5.93;5.50;;;35.90;34.80;;;;;;4972710;28;20940;-75
2023/06/15 10:54:44;;;;;;;5.70;5.30;;;37.20;31.10;;;;;;4973009;28;20494;-75
2023/06/15 10:57:16;;;;;;;5.77;5.27;;;37.90;30.30;;;;;;4956110;28;20192;-75
2023/06/15 10:59:48;;;;;;;5.40;5.00;;;38.60;29.00;;;;;;4972537;28;20812;-75
2023/06/15 11:02:28;;;;;;;5.20;4.80;;;37.10;28.00;;;;;;4961261;28;20436;-75
2023/06/15 11:05:01;;;;;;;4.77;4.37;;;36.90;29.10;;;;;;4954057;29;20483;-75
2023/06/15 11:07:28;;;;;;;5.17;4.70;;;38.40;28.90;;;;;;4954156;29;20416;-75
2023/06/15 11:09:56;;;;;;;4.67;4.33;;;38.40;27.90;;;;;;4953833;28;20844;-74
2023/06/15 11:12:37;;;;;;;5.13;4.53;;;38.10;27.80;;;;;;4972386;28;20447;-75
2023/06/15 11:15:05;;;;;;;5.50;5.10;;;39.60;28.90;;;;;;4970308;28;20440;-75
2023/06/15 11:17:50;;;;;;;5.03;4.83;;;38.90;28.80;;;;;;4954075;29;20806;-75
2023/06/15 11:20:37;;;;;;;5.93;4.37;;;40.90;28.90;;;;;;4955548;28;20475;-75
2023/06/15 11:23:10;;;;;;;6.43;5.20;;;41.60;28.60;;;;;;4970031;28;20841;-75
2023/06/15 11:25:37;;;;;;;5.13;4.63;;;41.00;29.00;;;;;;4954169;29;20460;-75
2023/06/15 11:28:03;;;;;;;6.47;5.87;;;38.40;29.50;;;;;;4953938;29;20424;-75
2023/06/15 11:30:29;;;;;;;5.33;4.90;;;35.50;31.30;;;;;;4953605;29;20934;-74
2023/06/15 11:32:55;;;;;;;5.50;5.20;;;33.20;33.20;;;;;;4962249;28;20447;-74
2023/06/15 11:35:20;;;;;;;7.13;6.43;;;32.40;34.90;;;;;;4967755;28;20212;-74
2023/06/15 11:37:47;;;;;;;6.27;5.70;;;31.70;35.80;;;;;;4953898;29;20421;-74
2023/06/15 11:40:16;;;;;;;6.40;5.73;;;30.80;38.40;;;;;;4953487;29;20272;-74
2023/06/15 11:42:41;;;;;;;7.20;6.70;;;32.50;37.00;;;;;;4953803;29;20507;-74
2023/06/15 11:45:18;;;;;;;5.80;5.30;;;34.60;35.80;;;;;;4962907;28;20563;-75
2023/06/15 11:47:44;;;;;;;5.83;5.37;;;36.90;35.20;;;;;;4972277;28;20179;-74
2023/06/15 11:50:10;;;;;;;7.03;6.33;;;39.00;33.70;;;;;;4960748;28;20428;-73
2023/06/15 11:52:43;;;;;;;5.93;5.40;;;39.30;32.80;;;;;;4968991;28;20450;-75
2023/06/15 11:55:10;;;;;;;5.57;5.07;;;39.80;32.60;;;;;;4965387;28;20207;-74
2023/06/15 11:57:36;;;;;;;5.53;5.13;;;40.50;31.50;;;;;;4972405;28;20791;-75
2023/06/15 12:00:07;;;;;;;7.03;6.40;;;39.40;31.90;;;;;;4968063;28;20466;-75
2023/06/15 12:02:33;;;;;;;5.60;5.30;;;38.30;32.70;;;;;;4972964;28;20180;-76
2023/06/15 12:04:59;;;;;;;4.70;4.40;;;38.00;31.70;;;;;;4972738;28;20446;-75
2023/06/15 12:07:25;;;;;;;5.23;4.83;;;40.20;31.10;;;;;;4971540;28;20443;-75
2023/06/15 12:09:51;;;;;;;4.87;4.47;;;40.30;31.80;;;;;;4975790;28;20255;-74
2023/06/15 12:12:34;;;;;;;4.63;4.37;;;38.80;32.40;;;;;;4976601;28;20635;-75
2023/06/15 12:15:04;;;;;;;4.80;4.50;;;36.60;32.70;;;;;;4976529;28;20814;-75
2023/06/15 12:17:34;;;;;;;5.87;5.33;;;34.60;33.30;;;;;;4976317;28;20419;-74
2023/06/15 12:20:10;;;;;;;5.67;5.27;;;33.50;34.10;;;;;;4975319;28;20467;-74
2023/06/15 12:22:37;;;;;;;5.10;4.80;;;32.50;35.00;;;;;;4961134;28;20431;-75
2023/06/15 12:25:03;;;;;;;4.60;4.30;;;34.00;34.70;;;;;;4956794;29;20529;-73
2023/06/15 12:27:31;;;;;;;5.00;4.70;;;34.90;33.50;;;;;;4956927;29;20424;-75
2023/06/15 12:30:07;;;;;;;5.07;4.67;;;37.20;32.40;;;;;;4956742;29;20968;-75
2023/06/15 12:32:33;;;;;;;5.27;4.87;;;38.80;31.20;;;;;;4973636;28;20923;-75
2023/06/15 12:34:58;;;;;;;4.80;4.50;;;39.70;30.20;;;;;;4957795;28;20492;-75
2023/06/15 12:37:24;;;;;;;4.87;4.57;;;39.50;30.40;;;;;;4956800;29;20265;-73
2023/06/15 12:39:49;;;;;;;5.20;4.77;;;41.00;29.70;;;;;;4956404;29;20204;-75
2023/06/15 12:42:20;;;;;;;4.80;4.50;;;41.20;29.40;;;;;;4956753;29;20555;-75
2023/06/15 12:44:46;;;;;;;4.60;4.40;;;42.30;31.30;;;;;;4974346;28;20264;-74
2023/06/15 12:47:11;;;;;;;5.60;5.20;;;42.80;30.90;;;;;;4956542;29;20508;-74